sensor_id;sensor_type;location;lat;lon;timestamp;P1;durP1;ratioP1;P2;durP2;ratioP2
63296;SDS011;49419;51.716;-4.948;2022-07-17T00:01:06;2.90;;;2.80;;
63296;SDS011;49419;51.716;-4.948;2022-07-17T00:03:32;2.83;;;2.72;;
63296;SDS011;49419;51.716;-4.948;2022-07-17T00:05:59;2.80;;;2.70;;
63296;SDS011;49419;51.716;-4.948;2022-07-17T00:08:25;2.90;;;2.80;;
63296;SDS011;49419;51.716;-4.948;2022-07-17T00:10:50;2.83;;;2.72;;
63296;SDS011;49419;51.716;-4.948;2022-07-17T00:13:16;2.58;;;2.47;;
63296;SDS011;49419;51.716;-4.948;2022-07-17T00:15:41;2.50;;;2.40;;
63296;SDS011;49419;51.716;-4.948;2022-07-17T00:18:11;2.70;;;2.60;;
63296;SDS011;49419;51.716;-4.948;2022-07-17T00:20:36;2.60;;;2.50;;
63296;SDS011;49419;51.716;-4.948;2022-07-17T00:23:02;2.50;;;2.40;;
63296;SDS011;49419;51.716;-4.948;2022-07-17T00:25:27;2.70;;;2.60;;
63296;SDS011;49419;51.716;-4.948;2022-07-17T00:27:53;2.65;;;2.55;;
63296;SDS011;49419;51.716;-4.948;2022-07-17T00:30:24;2.50;;;2.40;;
63296;SDS011;49419;51.716;-4.948;2022-07-17T00:32:50;2.58;;;2.47;;
63296;SDS011;49419;51.716;-4.948;2022-07-17T00:35:16;2.72;;;2.63;;
63296;SDS011;49419;51.716;-4.948;2022-07-17T00:37:42;2.63;;;2.53;;
63296;SDS011;49419;51.716;-4.948;2022-07-17T00:40:10;2.80;;;2.70;;
63296;SDS011;49419;51.716;-4.948;2022-07-17T00:42:43;2.70;;;2.60;;
63296;SDS011;49419;51.716;-4.948;2022-07-17T00:45:10;2.80;;;2.70;;
63296;SDS011;49419;51.716;-4.948;2022-07-17T00:50:23;3.10;;;2.90;;
63296;SDS011;49419;51.716;-4.948;2022-07-17T00:52:50;2.87;;;2.77;;
63296;SDS011;49419;51.716;-4.948;2022-07-17T00:55:17;2.72;;;2.63;;
63296;SDS011;49419;51.716;-4.948;2022-07-17T00:57:45;2.88;;;2.78;;
63296;SDS011;49419;51.716;-4.948;2022-07-17T01:00:12;2.90;;;2.80;;
63296;SDS011;49419;51.716;-4.948;2022-07-17T01:02:38;2.88;;;2.78;;
63296;SDS011;49419;51.716;-4.948;2022-07-17T01:05:05;2.80;;;2.70;;
63296;SDS011;49419;51.716;-4.948;2022-07-17T01:07:32;2.90;;;2.80;;
63296;SDS011;49419;51.716;-4.948;2022-07-17T01:09:57;2.70;;;2.60;;
63296;SDS011;49419;51.716;-4.948;2022-07-17T01:12:23;2.80;;;2.70;;
63296;SDS011;49419;51.716;-4.948;2022-07-17T01:14:50;3.00;;;2.90;;
63296;SDS011;49419;51.716;-4.948;2022-07-17T01:17:17;3.08;;;2.97;;
63296;SDS011;49419;51.716;-4.948;2022-07-17T01:19:42;2.95;;;2.85;;
63296;SDS011;49419;51.716;-4.948;2022-07-17T01:22:08;2.95;;;2.85;;
63296;SDS011;49419;51.716;-4.948;2022-07-17T01:24:33;3.22;;;3.08;;
63296;SDS011;49419;51.716;-4.948;2022-07-17T01:26:59;3.28;;;3.10;;
63296;SDS011;49419;51.716;-4.948;2022-07-17T01:29:26;3.30;;;3.13;;
63296;SDS011;49419;51.716;-4.948;2022-07-17T01:31:51;2.92;;;2.83;;
63296;SDS011;49419;51.716;-4.948;2022-07-17T01:34:17;3.30;;;3.10;;
63296;SDS011;49419;51.716;-4.948;2022-07-17T01:36:42;3.20;;;3.10;;
63296;SDS011;49419;51.716;-4.948;2022-07-17T01:39:08;3.47;;;3.28;;
63296;SDS011;49419;51.716;-4.948;2022-07-17T01:41:34;3.30;;;3.10;;
63296;SDS011;49419;51.716;-4.948;2022-07-17T01:43:59;3.50;;;3.30;;
63296;SDS011;49419;51.716;-4.948;2022-07-17T01:46:29;3.50;;;3.30;;
63296;SDS011;49419;51.716;-4.948;2022-07-17T01:49:04;3.60;;;3.40;;
63296;SDS011;49419;51.716;-4.948;2022-07-17T01:51:29;3.42;;;3.22;;
63296;SDS011;49419;51.716;-4.948;2022-07-17T01:53:55;3.53;;;3.33;;
63296;SDS011;49419;51.716;-4.948;2022-07-17T01:56:21;3.55;;;3.35;;
63296;SDS011;49419;51.716;-4.948;2022-07-17T01:58:47;3.60;;;3.40;;
63296;SDS011;49419;51.716;-4.948;2022-07-17T02:01:12;3.70;;;3.50;;
63296;SDS011;49419;51.716;-4.948;2022-07-17T02:03:38;3.65;;;3.45;;
63296;SDS011;49419;51.716;-4.948;2022-07-17T02:06:04;3.33;;;3.20;;
63296;SDS011;49419;51.716;-4.948;2022-07-17T02:08:30;3.33;;;3.13;;
63296;SDS011;49419;51.716;-4.948;2022-07-17T02:10:55;3.78;;;3.58;;
63296;SDS011;49419;51.716;-4.948;2022-07-17T02:13:21;3.38;;;3.17;;
63296;SDS011;49419;51.716;-4.948;2022-07-17T02:15:46;3.00;;;2.90;;
63296;SDS011;49419;51.716;-4.948;2022-07-17T02:18:11;2.97;;;2.88;;
63296;SDS011;49419;51.716;-4.948;2022-07-17T02:20:37;2.85;;;2.75;;
63296;SDS011;49419;51.716;-4.948;2022-07-17T02:23:02;2.67;;;2.58;;
63296;SDS011;49419;51.716;-4.948;2022-07-17T02:25:29;2.60;;;2.50;;
63296;SDS011;49419;51.716;-4.948;2022-07-17T02:27:59;2.70;;;2.60;;
63296;SDS011;49419;51.716;-4.948;2022-07-17T02:30:24;2.50;;;2.40;;
63296;SDS011;49419;51.716;-4.948;2022-07-17T02:32:50;2.40;;;2.30;;
63296;SDS011;49419;51.716;-4.948;2022-07-17T02:35:15;2.70;;;2.60;;
63296;SDS011;49419;51.716;-4.948;2022-07-17T02:37:41;2.42;;;2.33;;
63296;SDS011;49419;51.716;-4.948;2022-07-17T02:40:08;2.60;;;2.50;;
63296;SDS011;49419;51.716;-4.948;2022-07-17T02:42:34;2.83;;;2.72;;
63296;SDS011;49419;51.716;-4.948;2022-07-17T02:45:00;2.60;;;2.50;;
63296;SDS011;49419;51.716;-4.948;2022-07-17T02:49:55;2.80;;;2.70;;
63296;SDS011;49419;51.716;-4.948;2022-07-17T02:52:21;2.90;;;2.80;;
63296;SDS011;49419;51.716;-4.948;2022-07-17T02:54:47;3.00;;;2.90;;
63296;SDS011;49419;51.716;-4.948;2022-07-17T02:57:13;3.00;;;2.90;;
63296;SDS011;49419;51.716;-4.948;2022-07-17T02:59:39;3.00;;;2.90;;
63296;SDS011;49419;51.716;-4.948;2022-07-17T03:02:06;2.80;;;2.70;;
63296;SDS011;49419;51.716;-4.948;2022-07-17T03:04:32;3.00;;;2.90;;
63296;SDS011;49419;51.716;-4.948;2022-07-17T03:06:58;3.00;;;2.90;;
63296;SDS011;49419;51.716;-4.948;2022-07-17T03:09:25;3.13;;;2.95;;
63296;SDS011;49419;51.716;-4.948;2022-07-17T03:11:51;3.13;;;2.95;;
63296;SDS011;49419;51.716;-4.948;2022-07-17T03:14:17;3.20;;;3.05;;
63296;SDS011;49419;51.716;-4.948;2022-07-17T03:16:42;3.30;;;3.10;;
63296;SDS011;49419;51.716;-4.948;2022-07-17T03:19:09;3.40;;;3.20;;
63296;SDS011;49419;51.716;-4.948;2022-07-17T03:21:40;3.10;;;2.95;;
63296;SDS011;49419;51.716;-4.948;2022-07-17T03:24:05;3.20;;;3.00;;
63296;SDS011;49419;51.716;-4.948;2022-07-17T03:26:31;3.60;;;3.40;;
63296;SDS011;49419;51.716;-4.948;2022-07-17T03:28:56;3.70;;;3.50;;
63296;SDS011;49419;51.716;-4.948;2022-07-17T03:31:21;3.90;;;3.70;;
63296;SDS011;49419;51.716;-4.948;2022-07-17T03:33:47;3.60;;;3.40;;
63296;SDS011;49419;51.716;-4.948;2022-07-17T03:36:12;4.20;;;4.00;;
63296;SDS011;49419;51.716;-4.948;2022-07-17T03:39:01;4.07;;;3.87;;
63296;SDS011;49419;51.716;-4.948;2022-07-17T03:41:31;4.10;;;3.90;;
63296;SDS011;49419;51.716;-4.948;2022-07-17T03:43:56;3.88;;;3.67;;
63296;SDS011;49419;51.716;-4.948;2022-07-17T03:46:24;4.28;;;4.07;;
63296;SDS011;49419;51.716;-4.948;2022-07-17T03:48:56;4.20;;;4.00;;
63296;SDS011;49419;51.716;-4.948;2022-07-17T03:51:22;4.10;;;3.90;;
63296;SDS011;49419;51.716;-4.948;2022-07-17T03:53:52;4.18;;;3.97;;
63296;SDS011;49419;51.716;-4.948;2022-07-17T03:56:19;4.30;;;4.00;;
63296;SDS011;49419;51.716;-4.948;2022-07-17T03:58:45;4.22;;;4.03;;
63296;SDS011;49419;51.716;-4.948;2022-07-17T04:01:10;4.28;;;3.97;;
63296;SDS011;49419;51.716;-4.948;2022-07-17T04:03:41;4.28;;;4.00;;
63296;SDS011;49419;51.716;-4.948;2022-07-17T04:06:06;4.50;;;4.20;;
63296;SDS011;49419;51.716;-4.948;2022-07-17T04:08:37;4.10;;;3.90;;
63296;SDS011;49419;51.716;-4.948;2022-07-17T04:11:02;4.20;;;3.90;;
63296;SDS011;49419;51.716;-4.948;2022-07-17T04:13:28;4.00;;;3.80;;
63296;SDS011;49419;51.716;-4.948;2022-07-17T04:15:59;4.07;;;3.88;;
63296;SDS011;49419;51.716;-4.948;2022-07-17T04:18:32;4.38;;;4.07;;
63296;SDS011;49419;51.716;-4.948;2022-07-17T04:21:05;4.00;;;3.80;;
63296;SDS011;49419;51.716;-4.948;2022-07-17T04:23:42;4.20;;;4.00;;
63296;SDS011;49419;51.716;-4.948;2022-07-17T04:26:14;4.35;;;4.13;;
63296;SDS011;49419;51.716;-4.948;2022-07-17T04:28:41;4.18;;;3.97;;
63296;SDS011;49419;51.716;-4.948;2022-07-17T04:31:10;4.32;;;4.03;;
63296;SDS011;49419;51.716;-4.948;2022-07-17T04:33:40;4.15;;;3.90;;
63296;SDS011;49419;51.716;-4.948;2022-07-17T04:36:06;4.40;;;4.10;;
63296;SDS011;49419;51.716;-4.948;2022-07-17T04:38:33;4.70;;;4.40;;
63296;SDS011;49419;51.716;-4.948;2022-07-17T04:40:59;4.70;;;4.40;;
63296;SDS011;49419;51.716;-4.948;2022-07-17T04:43:24;4.80;;;4.50;;
63296;SDS011;49419;51.716;-4.948;2022-07-17T04:45:51;4.68;;;4.38;;
63296;SDS011;49419;51.716;-4.948;2022-07-17T04:48:17;4.47;;;4.18;;
63296;SDS011;49419;51.716;-4.948;2022-07-17T04:50:43;4.80;;;4.50;;
63296;SDS011;49419;51.716;-4.948;2022-07-17T04:53:15;4.50;;;4.20;;
63296;SDS011;49419;51.716;-4.948;2022-07-17T04:55:40;4.85;;;4.45;;
63296;SDS011;49419;51.716;-4.948;2022-07-17T04:58:06;4.47;;;4.28;;
63296;SDS011;49419;51.716;-4.948;2022-07-17T05:00:31;4.68;;;4.40;;
63296;SDS011;49419;51.716;-4.948;2022-07-17T05:03:06;4.60;;;4.30;;
63296;SDS011;49419;51.716;-4.948;2022-07-17T05:05:33;4.70;;;4.47;;
63296;SDS011;49419;51.716;-4.948;2022-07-17T05:08:14;5.10;;;4.80;;
63296;SDS011;49419;51.716;-4.948;2022-07-17T05:10:41;4.90;;;4.60;;
63296;SDS011;49419;51.716;-4.948;2022-07-17T05:13:28;5.05;;;4.75;;
63296;SDS011;49419;51.716;-4.948;2022-07-17T05:15:59;5.00;;;4.70;;
63296;SDS011;49419;51.716;-4.948;2022-07-17T05:19:06;4.70;;;4.40;;
63296;SDS011;49419;51.716;-4.948;2022-07-17T05:22:09;4.90;;;4.60;;
63296;SDS011;49419;51.716;-4.948;2022-07-17T05:24:59;4.80;;;4.50;;
63296;SDS011;49419;51.716;-4.948;2022-07-17T05:27:54;4.55;;;4.25;;
63296;SDS011;49419;51.716;-4.948;2022-07-17T05:30:29;4.72;;;4.43;;
63296;SDS011;49419;51.716;-4.948;2022-07-17T05:33:42;4.53;;;4.30;;
63296;SDS011;49419;51.716;-4.948;2022-07-17T05:38:39;4.60;;;4.30;;
63296;SDS011;49419;51.716;-4.948;2022-07-17T05:41:08;4.72;;;4.43;;
63296;SDS011;49419;51.716;-4.948;2022-07-17T05:43:38;4.70;;;4.40;;
63296;SDS011;49419;51.716;-4.948;2022-07-17T05:46:08;4.70;;;4.40;;
63296;SDS011;49419;51.716;-4.948;2022-07-17T05:48:50;4.55;;;4.35;;
63296;SDS011;49419;51.716;-4.948;2022-07-17T05:51:17;4.65;;;4.38;;
63296;SDS011;49419;51.716;-4.948;2022-07-17T05:53:45;4.40;;;4.10;;
63296;SDS011;49419;51.716;-4.948;2022-07-17T05:56:12;4.75;;;4.45;;
63296;SDS011;49419;51.716;-4.948;2022-07-17T05:58:40;4.30;;;4.00;;
63296;SDS011;49419;51.716;-4.948;2022-07-17T06:01:06;4.40;;;4.20;;
63296;SDS011;49419;51.716;-4.948;2022-07-17T06:03:31;4.20;;;4.00;;
63296;SDS011;49419;51.716;-4.948;2022-07-17T06:06:01;4.15;;;3.95;;
63296;SDS011;49419;51.716;-4.948;2022-07-17T06:08:28;4.00;;;3.80;;
63296;SDS011;49419;51.716;-4.948;2022-07-17T06:10:54;4.32;;;4.03;;
63296;SDS011;49419;51.716;-4.948;2022-07-17T06:13:20;3.92;;;3.72;;
63296;SDS011;49419;51.716;-4.948;2022-07-17T06:15:55;4.07;;;3.83;;
63296;SDS011;49419;51.716;-4.948;2022-07-17T06:18:26;3.90;;;3.70;;
63296;SDS011;49419;51.716;-4.948;2022-07-17T06:20:53;3.85;;;3.55;;
63296;SDS011;49419;51.716;-4.948;2022-07-17T06:23:29;3.75;;;3.55;;
63296;SDS011;49419;51.716;-4.948;2022-07-17T06:26:15;3.95;;;3.65;;
63296;SDS011;49419;51.716;-4.948;2022-07-17T06:31:44;3.53;;;3.33;;
63296;SDS011;49419;51.716;-4.948;2022-07-17T06:34:15;3.60;;;3.40;;
63296;SDS011;49419;51.716;-4.948;2022-07-17T06:36:41;3.40;;;3.20;;
63296;SDS011;49419;51.716;-4.948;2022-07-17T06:39:15;3.58;;;3.38;;
63296;SDS011;49419;51.716;-4.948;2022-07-17T06:41:41;3.40;;;3.20;;
63296;SDS011;49419;51.716;-4.948;2022-07-17T06:44:13;3.60;;;3.30;;
63296;SDS011;49419;51.716;-4.948;2022-07-17T06:49:10;3.65;;;3.40;;
63296;SDS011;49419;51.716;-4.948;2022-07-17T07:02:23;3.60;;;3.40;;
63296;SDS011;49419;51.716;-4.948;2022-07-17T07:07:39;3.70;;;3.50;;
63296;SDS011;49419;51.716;-4.948;2022-07-17T07:10:07;3.30;;;3.10;;
63296;SDS011;49419;51.716;-4.948;2022-07-17T07:12:51;3.30;;;3.10;;
63296;SDS011;49419;51.716;-4.948;2022-07-17T07:15:29;3.53;;;3.33;;
63296;SDS011;49419;51.716;-4.948;2022-07-17T07:18:20;3.67;;;3.45;;
63296;SDS011;49419;51.716;-4.948;2022-07-17T07:20:50;3.20;;;3.00;;
63296;SDS011;49419;51.716;-4.948;2022-07-17T07:23:16;3.30;;;3.10;;
63296;SDS011;49419;51.716;-4.948;2022-07-17T07:26:07;3.30;;;3.10;;
63296;SDS011;49419;51.716;-4.948;2022-07-17T07:28:35;3.10;;;2.90;;
63296;SDS011;49419;51.716;-4.948;2022-07-17T07:31:04;3.70;;;3.40;;
63296;SDS011;49419;51.716;-4.948;2022-07-17T07:33:33;3.97;;;3.78;;
63296;SDS011;49419;51.716;-4.948;2022-07-17T07:35:59;5.30;;;5.00;;
63296;SDS011;49419;51.716;-4.948;2022-07-17T07:38:25;7.60;;;7.10;;
63296;SDS011;49419;51.716;-4.948;2022-07-17T07:41:11;7.80;;;7.30;;
63296;SDS011;49419;51.716;-4.948;2022-07-17T07:43:37;7.93;;;7.43;;
63296;SDS011;49419;51.716;-4.948;2022-07-17T07:46:14;6.90;;;6.50;;
63296;SDS011;49419;51.716;-4.948;2022-07-17T07:48:46;6.65;;;6.25;;
63296;SDS011;49419;51.716;-4.948;2022-07-17T07:54:04;5.60;;;5.30;;
63296;SDS011;49419;51.716;-4.948;2022-07-17T07:56:37;5.57;;;5.28;;
63296;SDS011;49419;51.716;-4.948;2022-07-17T07:59:03;5.40;;;5.10;;
63296;SDS011;49419;51.716;-4.948;2022-07-17T08:01:39;5.22;;;4.93;;
63296;SDS011;49419;51.716;-4.948;2022-07-17T08:04:25;5.20;;;4.90;;
63296;SDS011;49419;51.716;-4.948;2022-07-17T08:12:22;4.70;;;4.40;;
63296;SDS011;49419;51.716;-4.948;2022-07-17T08:14:49;4.78;;;4.47;;
63296;SDS011;49419;51.716;-4.948;2022-07-17T08:17:30;4.65;;;4.35;;
63296;SDS011;49419;51.716;-4.948;2022-07-17T08:26:17;4.30;;;4.10;;
63296;SDS011;49419;51.716;-4.948;2022-07-17T08:45:09;3.90;;;3.70;;
63296;SDS011;49419;51.716;-4.948;2022-07-17T08:47:38;3.42;;;3.22;;
63296;SDS011;49419;51.716;-4.948;2022-07-17T08:50:24;3.72;;;3.53;;
63296;SDS011;49419;51.716;-4.948;2022-07-17T08:56:17;3.75;;;3.55;;
63296;SDS011;49419;51.716;-4.948;2022-07-17T09:01:51;3.60;;;3.40;;
63296;SDS011;49419;51.716;-4.948;2022-07-17T09:05:02;4.03;;;3.83;;
63296;SDS011;49419;51.716;-4.948;2022-07-17T09:21:24;3.60;;;3.40;;
63296;SDS011;49419;51.716;-4.948;2022-07-17T12:38:13;2.50;;;2.30;;
63296;SDS011;49419;51.716;-4.948;2022-07-17T12:40:39;2.50;;;2.40;;
63296;SDS011;49419;51.716;-4.948;2022-07-17T12:43:07;2.47;;;2.28;;
63296;SDS011;49419;51.716;-4.948;2022-07-17T12:45:34;2.30;;;2.20;;
63296;SDS011;49419;51.716;-4.948;2022-07-17T12:48:42;2.42;;;2.33;;
63296;SDS011;49419;51.716;-4.948;2022-07-17T12:58:54;2.50;;;2.40;;
63296;SDS011;49419;51.716;-4.948;2022-07-17T13:01:25;2.60;;;2.50;;
63296;SDS011;49419;51.716;-4.948;2022-07-17T13:06:54;2.40;;;2.30;;
63296;SDS011;49419;51.716;-4.948;2022-07-17T13:09:44;2.40;;;2.30;;
63296;SDS011;49419;51.716;-4.948;2022-07-17T13:12:26;2.30;;;2.20;;
63296;SDS011;49419;51.716;-4.948;2022-07-17T13:17:29;2.50;;;2.40;;
63296;SDS011;49419;51.716;-4.948;2022-07-17T13:22:35;2.40;;;2.30;;
63296;SDS011;49419;51.716;-4.948;2022-07-17T13:38:02;2.35;;;2.25;;
63296;SDS011;49419;51.716;-4.948;2022-07-17T13:43:46;2.33;;;2.20;;
63296;SDS011;49419;51.716;-4.948;2022-07-17T14:01:58;2.38;;;2.28;;
63296;SDS011;49419;51.716;-4.948;2022-07-17T14:04:38;2.47;;;2.38;;
63296;SDS011;49419;51.716;-4.948;2022-07-17T14:07:13;2.30;;;2.20;;
63296;SDS011;49419;51.716;-4.948;2022-07-17T14:12:20;2.42;;;2.33;;
63296;SDS011;49419;51.716;-4.948;2022-07-17T14:14:57;2.17;;;2.08;;
63296;SDS011;49419;51.716;-4.948;2022-07-17T14:17:57;2.40;;;2.30;;
63296;SDS011;49419;51.716;-4.948;2022-07-17T14:20:30;2.30;;;2.20;;
63296;SDS011;49419;51.716;-4.948;2022-07-17T14:23:17;2.10;;;2.00;;
63296;SDS011;49419;51.716;-4.948;2022-07-17T14:25:45;2.13;;;2.03;;
63296;SDS011;49419;51.716;-4.948;2022-07-17T14:28:23;2.10;;;1.98;;
63296;SDS011;49419;51.716;-4.948;2022-07-17T14:31:07;2.10;;;2.00;;
63296;SDS011;49419;51.716;-4.948;2022-07-17T14:34:22;2.00;;;1.90;;
63296;SDS011;49419;51.716;-4.948;2022-07-17T14:36:59;2.30;;;2.20;;
63296;SDS011;49419;51.716;-4.948;2022-07-17T14:39:42;2.15;;;2.05;;
63296;SDS011;49419;51.716;-4.948;2022-07-17T14:42:25;2.10;;;2.00;;
63296;SDS011;49419;51.716;-4.948;2022-07-17T14:45:00;2.28;;;2.17;;
63296;SDS011;49419;51.716;-4.948;2022-07-17T14:47:58;2.10;;;2.00;;
63296;SDS011;49419;51.716;-4.948;2022-07-17T14:50:27;2.20;;;2.10;;
63296;SDS011;49419;51.716;-4.948;2022-07-17T14:53:20;2.20;;;2.10;;
63296;SDS011;49419;51.716;-4.948;2022-07-17T14:55:52;2.30;;;2.10;;
63296;SDS011;49419;51.716;-4.948;2022-07-17T15:15:25;2.35;;;2.20;;
63296;SDS011;49419;51.716;-4.948;2022-07-17T15:23:51;2.20;;;2.00;;
63296;SDS011;49419;51.716;-4.948;2022-07-17T15:29:25;2.00;;;1.90;;
63296;SDS011;49419;51.716;-4.948;2022-07-17T15:31:54;2.00;;;1.90;;
63296;SDS011;49419;51.716;-4.948;2022-07-17T15:35:12;1.98;;;1.88;;
63296;SDS011;49419;51.716;-4.948;2022-07-17T15:41:39;2.08;;;1.98;;
63296;SDS011;49419;51.716;-4.948;2022-07-17T15:44:10;2.00;;;1.90;;
63296;SDS011;49419;51.716;-4.948;2022-07-17T15:54:25;2.25;;;2.15;;
63296;SDS011;49419;51.716;-4.948;2022-07-17T15:57:04;2.33;;;2.22;;
63296;SDS011;49419;51.716;-4.948;2022-07-17T15:59:44;2.35;;;2.25;;
63296;SDS011;49419;51.716;-4.948;2022-07-17T16:02:17;2.40;;;2.30;;
63296;SDS011;49419;51.716;-4.948;2022-07-17T16:04:47;2.40;;;2.20;;
63296;SDS011;49419;51.716;-4.948;2022-07-17T16:14:23;2.00;;;1.90;;
63296;SDS011;49419;51.716;-4.948;2022-07-17T16:16:54;2.03;;;1.92;;
63296;SDS011;49419;51.716;-4.948;2022-07-17T16:20:18;2.00;;;1.90;;
63296;SDS011;49419;51.716;-4.948;2022-07-17T16:25:36;2.00;;;1.90;;
63296;SDS011;49419;51.716;-4.948;2022-07-17T16:28:29;2.15;;;2.05;;
63296;SDS011;49419;51.716;-4.948;2022-07-17T16:34:33;2.00;;;1.90;;
63296;SDS011;49419;51.716;-4.948;2022-07-17T16:37:07;2.28;;;2.17;;
63296;SDS011;49419;51.716;-4.948;2022-07-17T16:39:49;2.10;;;2.00;;
63296;SDS011;49419;51.716;-4.948;2022-07-17T16:42:23;2.00;;;1.90;;
63296;SDS011;49419;51.716;-4.948;2022-07-17T16:45:03;2.00;;;1.90;;
63296;SDS011;49419;51.716;-4.948;2022-07-17T16:47:36;1.90;;;1.80;;
63296;SDS011;49419;51.716;-4.948;2022-07-17T16:50:09;1.77;;;1.67;;
63296;SDS011;49419;51.716;-4.948;2022-07-17T16:55:31;2.00;;;1.90;;
63296;SDS011;49419;51.716;-4.948;2022-07-17T17:00:53;2.20;;;2.10;;
63296;SDS011;49419;51.716;-4.948;2022-07-17T17:03:26;2.20;;;2.10;;
63296;SDS011;49419;51.716;-4.948;2022-07-17T17:05:54;2.38;;;2.17;;
63296;SDS011;49419;51.716;-4.948;2022-07-17T17:08:27;2.35;;;2.25;;
63296;SDS011;49419;51.716;-4.948;2022-07-17T17:11:16;2.40;;;2.30;;
63296;SDS011;49419;51.716;-4.948;2022-07-17T17:13:56;2.45;;;2.35;;
63296;SDS011;49419;51.716;-4.948;2022-07-17T17:16:25;2.50;;;2.40;;
63296;SDS011;49419;51.716;-4.948;2022-07-17T17:21:55;2.63;;;2.45;;
63296;SDS011;49419;51.716;-4.948;2022-07-17T18:13:19;2.60;;;2.40;;
63296;SDS011;49419;51.716;-4.948;2022-07-17T18:15:47;2.60;;;2.50;;
63296;SDS011;49419;51.716;-4.948;2022-07-17T18:18:12;2.40;;;2.30;;
63296;SDS011;49419;51.716;-4.948;2022-07-17T18:20:38;2.60;;;2.50;;
63296;SDS011;49419;51.716;-4.948;2022-07-17T18:23:05;2.50;;;2.40;;
63296;SDS011;49419;51.716;-4.948;2022-07-17T18:25:33;2.40;;;2.30;;
63296;SDS011;49419;51.716;-4.948;2022-07-17T18:27:59;2.28;;;2.17;;
63296;SDS011;49419;51.716;-4.948;2022-07-17T18:30:24;2.40;;;2.30;;
63296;SDS011;49419;51.716;-4.948;2022-07-17T18:32:51;2.50;;;2.40;;
63296;SDS011;49419;51.716;-4.948;2022-07-17T18:37:49;2.60;;;2.50;;
63296;SDS011;49419;51.716;-4.948;2022-07-17T18:42:43;2.53;;;2.42;;
63296;SDS011;49419;51.716;-4.948;2022-07-17T18:45:10;2.47;;;2.38;;
63296;SDS011;49419;51.716;-4.948;2022-07-17T18:47:38;2.40;;;2.30;;
63296;SDS011;49419;51.716;-4.948;2022-07-17T18:50:05;2.60;;;2.50;;
63296;SDS011;49419;51.716;-4.948;2022-07-17T18:52:34;2.50;;;2.40;;
63296;SDS011;49419;51.716;-4.948;2022-07-17T18:55:02;2.50;;;2.40;;
63296;SDS011;49419;51.716;-4.948;2022-07-17T18:57:28;2.63;;;2.53;;
63296;SDS011;49419;51.716;-4.948;2022-07-17T18:59:54;2.70;;;2.60;;
63296;SDS011;49419;51.716;-4.948;2022-07-17T19:02:20;2.60;;;2.50;;
63296;SDS011;49419;51.716;-4.948;2022-07-17T19:04:46;2.58;;;2.47;;
63296;SDS011;49419;51.716;-4.948;2022-07-17T19:07:11;2.50;;;2.40;;
63296;SDS011;49419;51.716;-4.948;2022-07-17T19:09:40;2.40;;;2.30;;
63296;SDS011;49419;51.716;-4.948;2022-07-17T19:19:50;2.50;;;2.40;;
63296;SDS011;49419;51.716;-4.948;2022-07-17T19:22:55;2.63;;;2.53;;
63296;SDS011;49419;51.716;-4.948;2022-07-17T19:51:48;2.72;;;2.63;;
63296;SDS011;49419;51.716;-4.948;2022-07-17T19:54:31;2.70;;;2.60;;
63296;SDS011;49419;51.716;-4.948;2022-07-17T19:57:37;2.75;;;2.65;;
63296;SDS011;49419;51.716;-4.948;2022-07-17T20:00:18;2.90;;;2.80;;
63296;SDS011;49419;51.716;-4.948;2022-07-17T20:03:06;2.53;;;2.42;;
63296;SDS011;49419;51.716;-4.948;2022-07-17T20:05:39;2.90;;;2.80;;
63296;SDS011;49419;51.716;-4.948;2022-07-17T20:08:05;2.67;;;2.58;;
63296;SDS011;49419;51.716;-4.948;2022-07-17T20:10:30;2.78;;;2.67;;
63296;SDS011;49419;51.716;-4.948;2022-07-17T20:12:57;2.80;;;2.70;;
63296;SDS011;49419;51.716;-4.948;2022-07-17T20:15:25;2.70;;;2.60;;
63296;SDS011;49419;51.716;-4.948;2022-07-17T20:17:51;2.60;;;2.50;;
63296;SDS011;49419;51.716;-4.948;2022-07-17T20:20:18;2.63;;;2.53;;
63296;SDS011;49419;51.716;-4.948;2022-07-17T20:22:44;2.97;;;2.88;;
63296;SDS011;49419;51.716;-4.948;2022-07-17T20:25:09;2.90;;;2.80;;
63296;SDS011;49419;51.716;-4.948;2022-07-17T20:27:36;2.90;;;2.80;;
63296;SDS011;49419;51.716;-4.948;2022-07-17T20:30:02;2.83;;;2.72;;
63296;SDS011;49419;51.716;-4.948;2022-07-17T20:32:29;2.80;;;2.70;;
63296;SDS011;49419;51.716;-4.948;2022-07-17T20:35:10;2.90;;;2.80;;
63296;SDS011;49419;51.716;-4.948;2022-07-17T20:37:37;2.78;;;2.67;;
63296;SDS011;49419;51.716;-4.948;2022-07-17T20:40:04;2.70;;;2.60;;
63296;SDS011;49419;51.716;-4.948;2022-07-17T20:42:34;2.85;;;2.75;;
63296;SDS011;49419;51.716;-4.948;2022-07-17T20:44:59;2.90;;;2.80;;
63296;SDS011;49419;51.716;-4.948;2022-07-17T20:47:25;3.00;;;2.90;;
63296;SDS011;49419;51.716;-4.948;2022-07-17T20:49:51;3.40;;;3.20;;
63296;SDS011;49419;51.716;-4.948;2022-07-17T20:52:16;3.67;;;3.47;;
63296;SDS011;49419;51.716;-4.948;2022-07-17T20:54:42;3.80;;;3.60;;
63296;SDS011;49419;51.716;-4.948;2022-07-17T20:57:11;3.75;;;3.55;;
63296;SDS011;49419;51.716;-4.948;2022-07-17T20:59:36;3.65;;;3.45;;
63296;SDS011;49419;51.716;-4.948;2022-07-17T21:02:03;3.58;;;3.38;;
63296;SDS011;49419;51.716;-4.948;2022-07-17T21:07:58;3.60;;;3.40;;
63296;SDS011;49419;51.716;-4.948;2022-07-17T21:10:33;3.22;;;3.13;;
63296;SDS011;49419;51.716;-4.948;2022-07-17T21:13:00;3.30;;;3.20;;
63296;SDS011;49419;51.716;-4.948;2022-07-17T21:15:25;3.50;;;3.30;;
63296;SDS011;49419;51.716;-4.948;2022-07-17T21:17:51;3.40;;;3.20;;
63296;SDS011;49419;51.716;-4.948;2022-07-17T21:20:17;3.50;;;3.20;;
63296;SDS011;49419;51.716;-4.948;2022-07-17T21:22:43;3.67;;;3.47;;
63296;SDS011;49419;51.716;-4.948;2022-07-17T21:25:09;3.60;;;3.40;;
63296;SDS011;49419;51.716;-4.948;2022-07-17T21:27:35;3.67;;;3.47;;
63296;SDS011;49419;51.716;-4.948;2022-07-17T21:30:01;3.60;;;3.40;;
63296;SDS011;49419;51.716;-4.948;2022-07-17T21:32:26;3.80;;;3.60;;
63296;SDS011;49419;51.716;-4.948;2022-07-17T21:34:53;3.83;;;3.63;;
63296;SDS011;49419;51.716;-4.948;2022-07-17T21:37:20;3.78;;;3.58;;
63296;SDS011;49419;51.716;-4.948;2022-07-17T21:39:46;3.38;;;3.20;;
63296;SDS011;49419;51.716;-4.948;2022-07-17T21:42:11;3.50;;;3.30;;
63296;SDS011;49419;51.716;-4.948;2022-07-17T21:44:37;3.00;;;2.90;;
63296;SDS011;49419;51.716;-4.948;2022-07-17T21:47:02;3.35;;;3.20;;
63296;SDS011;49419;51.716;-4.948;2022-07-17T21:49:28;3.40;;;3.20;;
63296;SDS011;49419;51.716;-4.948;2022-07-17T21:51:57;3.38;;;3.20;;
63296;SDS011;49419;51.716;-4.948;2022-07-17T21:54:22;3.30;;;3.20;;
63296;SDS011;49419;51.716;-4.948;2022-07-17T21:56:48;3.45;;;3.25;;
63296;SDS011;49419;51.716;-4.948;2022-07-17T21:59:13;3.60;;;3.40;;
63296;SDS011;49419;51.716;-4.948;2022-07-17T22:01:39;3.58;;;3.38;;
63296;SDS011;49419;51.716;-4.948;2022-07-17T22:04:05;3.90;;;3.70;;
63296;SDS011;49419;51.716;-4.948;2022-07-17T22:06:30;3.92;;;3.72;;
63296;SDS011;49419;51.716;-4.948;2022-07-17T22:08:56;3.70;;;3.50;;
63296;SDS011;49419;51.716;-4.948;2022-07-17T22:11:22;4.10;;;3.90;;
63296;SDS011;49419;51.716;-4.948;2022-07-17T22:13:48;4.25;;;4.05;;
63296;SDS011;49419;51.716;-4.948;2022-07-17T22:16:15;4.93;;;4.72;;
63296;SDS011;49419;51.716;-4.948;2022-07-17T22:18:41;4.25;;;4.05;;
63296;SDS011;49419;51.716;-4.948;2022-07-17T22:21:09;3.90;;;3.70;;
63296;SDS011;49419;51.716;-4.948;2022-07-17T22:23:40;3.58;;;3.38;;
63296;SDS011;49419;51.716;-4.948;2022-07-17T22:26:06;3.25;;;3.15;;
63296;SDS011;49419;51.716;-4.948;2022-07-17T22:28:34;3.30;;;3.20;;
63296;SDS011;49419;51.716;-4.948;2022-07-17T22:31:00;3.58;;;3.38;;
63296;SDS011;49419;51.716;-4.948;2022-07-17T22:33:29;3.50;;;3.30;;
63296;SDS011;49419;51.716;-4.948;2022-07-17T22:35:59;3.25;;;3.15;;
63296;SDS011;49419;51.716;-4.948;2022-07-17T22:38:27;3.40;;;3.20;;
63296;SDS011;49419;51.716;-4.948;2022-07-17T22:40:53;3.50;;;3.30;;
63296;SDS011;49419;51.716;-4.948;2022-07-17T22:43:19;3.10;;;3.00;;
63296;SDS011;49419;51.716;-4.948;2022-07-17T22:45:44;3.00;;;2.90;;
63296;SDS011;49419;51.716;-4.948;2022-07-17T22:48:10;3.00;;;2.90;;